createdAt,value
2023-02-11T00:00:18.776Z,100612.94
2023-02-11T00:02:47.820Z,100608.81
2023-02-11T00:05:15.255Z,100593.13
2023-02-11T00:10:14.151Z,100608.50
2023-02-11T00:15:08.142Z,100597.88
2023-02-11T00:17:34.762Z,100602.47
2023-02-11T00:20:01.433Z,100597.56
2023-02-11T00:22:31.547Z,100603.16
2023-02-11T00:25:16.751Z,100599.09
2023-02-11T00:27:48.161Z,100597.56
2023-02-11T00:30:17.913Z,100595.78
2023-02-11T00:32:58.860Z,100604.19
2023-02-11T00:35:59.407Z,100601.81
2023-02-11T00:38:22.981Z,100606.16
2023-02-11T00:41:00.568Z,100607.78
2023-02-11T00:43:32.605Z,100609.03
2023-02-11T00:46:16.046Z,100605.13
2023-02-11T00:48:58.805Z,100600.59
2023-02-11T00:51:43.162Z,100597.34
2023-02-11T00:54:28.433Z,100607.38
2023-02-11T00:57:27.288Z,100603.28
2023-02-11T01:00:16.198Z,100601.13
2023-02-11T01:02:53.225Z,100596.81
2023-02-11T01:05:35.586Z,100594.88
2023-02-11T01:08:07.216Z,100596.63
2023-02-11T01:11:32.988Z,100591.41
2023-02-11T01:16:08.747Z,100574.06
2023-02-11T01:19:04.234Z,100567.09
2023-02-11T01:24:21.390Z,100575.19
2023-02-11T01:27:03.885Z,100584.53
2023-02-11T01:29:34.008Z,100570.88
2023-02-11T01:32:22.297Z,100577.66
2023-02-11T01:35:06.920Z,100561.22
2023-02-11T01:37:37.812Z,100560.00
2023-02-11T01:40:26.939Z,100564.53
2023-02-11T01:43:16.350Z,100554.88
2023-02-11T01:46:23.777Z,100542.56
2023-02-11T01:49:15.728Z,100556.53
2023-02-11T01:52:17.707Z,100553.78
2023-02-11T01:55:12.789Z,100550.38
2023-02-11T02:00:20.496Z,100534.44
2023-02-11T02:03:01.713Z,100530.97
2023-02-11T02:05:47.797Z,100529.53
2023-02-11T02:08:23.331Z,100537.13
2023-02-11T02:10:56.575Z,100538.66
2023-02-11T02:13:24.501Z,100539.41
2023-02-11T02:15:54.887Z,100534.03
2023-02-11T02:18:24.554Z,100525.66
2023-02-11T02:21:15.136Z,100518.91
2023-02-11T02:24:01.103Z,100512.31
2023-02-11T02:26:45.216Z,100504.94
2023-02-11T02:32:12.244Z,100493.34
2023-02-11T02:34:54.034Z,100496.66
2023-02-11T02:37:51.046Z,100500.75
2023-02-11T02:40:26.109Z,100492.88
2023-02-11T02:42:54.476Z,100494.41
2023-02-11T02:50:27.492Z,100479.72
2023-02-11T02:52:57.130Z,100488.13
2023-02-11T02:55:32.491Z,100489.88
2023-02-11T02:58:35.756Z,100487.66
2023-02-11T03:01:12.111Z,100490.31
2023-02-11T03:03:55.770Z,100494.41
2023-02-11T03:09:11.588Z,100494.25
2023-02-11T03:14:10.559Z,100503.63
2023-02-11T03:19:13.699Z,100498.72
2023-02-11T03:26:54.259Z,100497.47
2023-02-11T03:29:37.054Z,100492.84
2023-02-11T03:32:28.576Z,100475.47
2023-02-11T03:35:07.563Z,100466.97
2023-02-11T03:38:00.067Z,100468.38
2023-02-11T03:40:29.823Z,100465.69
2023-02-11T03:43:05.591Z,100461.75
2023-02-11T03:45:33.242Z,100460.19
2023-02-11T03:48:30.971Z,100477.06
2023-02-11T03:51:00.075Z,100480.50
2023-02-11T03:53:27.122Z,100479.81
2023-02-11T03:56:00.786Z,100477.66
2023-02-11T03:58:33.824Z,100487.34
2023-02-11T04:01:02.697Z,100473.06
2023-02-11T04:03:29.606Z,100466.28
2023-02-11T04:05:56.395Z,100468.59
2023-02-11T04:13:16.990Z,100461.00
2023-02-11T04:18:10.570Z,100442.66
2023-02-11T04:20:37.532Z,100433.56
2023-02-11T04:23:04.407Z,100436.47
2023-02-11T04:25:31.332Z,100422.91
2023-02-11T04:27:58.336Z,100418.16
2023-02-11T04:30:25.279Z,100420.69
2023-02-11T04:32:51.955Z,100420.38
2023-02-11T04:35:18.857Z,100420.34
2023-02-11T04:37:45.561Z,100421.69
2023-02-11T04:40:12.346Z,100406.81
2023-02-11T04:45:10.906Z,100411.97
2023-02-11T04:50:05.992Z,100419.03
2023-02-11T04:52:32.719Z,100404.16
2023-02-11T04:54:59.448Z,100409.78
2023-02-11T04:57:28.402Z,100411.81
2023-02-11T04:59:55.005Z,100417.44
2023-02-11T05:07:15.417Z,100436.13
2023-02-11T05:12:13.809Z,100425.69
2023-02-11T05:17:07.588Z,100413.88
2023-02-11T05:19:34.414Z,100413.97
2023-02-11T05:22:03.440Z,100406.50
2023-02-11T05:24:32.407Z,100382.78
2023-02-11T05:26:59.331Z,100376.13
2023-02-11T05:29:25.983Z,100381.63
2023-02-11T05:31:52.806Z,100404.19
2023-02-11T05:34:19.591Z,100404.75
2023-02-11T05:36:46.283Z,100411.16
2023-02-11T05:39:13.045Z,100369.94
2023-02-11T05:44:11.206Z,100388.41
2023-02-11T05:49:05.872Z,100387.22
2023-02-11T05:51:32.543Z,100385.09
2023-02-11T05:53:59.432Z,100388.47
2023-02-11T05:56:25.953Z,100390.69
2023-02-11T05:58:52.927Z,100389.66
2023-02-11T06:01:20.011Z,100397.25
2023-02-11T06:03:50.381Z,100399.69
2023-02-11T06:06:17.775Z,100410.50
2023-02-11T06:11:11.418Z,100388.47
2023-02-11T06:16:06.295Z,100393.84
2023-02-11T06:18:34.321Z,100384.06
2023-02-11T06:21:01.306Z,100379.50
2023-02-11T06:23:32.418Z,100372.28
2023-02-11T06:26:04.084Z,100385.00
2023-02-11T06:28:34.012Z,100378.19
2023-02-11T06:31:10.431Z,100367.00
2023-02-11T06:33:37.830Z,100371.31
2023-02-11T06:36:12.372Z,100366.31
2023-02-11T06:38:39.168Z,100367.72
2023-02-11T06:41:06.269Z,100376.31
2023-02-11T06:43:33.027Z,100383.84
2023-02-11T06:48:25.731Z,100409.97
2023-02-11T06:50:52.151Z,100402.41
2023-02-11T06:53:18.620Z,100412.50
2023-02-11T06:55:44.974Z,100414.53
2023-02-11T06:58:11.426Z,100408.34
2023-02-11T07:00:38.178Z,100408.91
2023-02-11T07:03:04.652Z,100413.75
2023-02-11T07:05:31.407Z,100399.28
2023-02-11T07:10:24.152Z,100416.31
2023-02-11T07:12:50.576Z,100410.00
2023-02-11T07:15:17.064Z,100413.19
2023-02-11T07:20:14.966Z,100417.09
2023-02-11T07:22:41.358Z,100408.66
2023-02-11T07:25:07.995Z,100411.19
2023-02-11T07:27:34.601Z,100394.78
2023-02-11T07:30:01.095Z,100385.44
2023-02-11T07:32:27.517Z,100398.69
2023-02-11T07:37:20.254Z,100382.75
2023-02-11T07:39:46.642Z,100379.19
2023-02-11T07:42:13.155Z,100392.44
2023-02-11T07:44:39.636Z,100407.88
2023-02-11T07:47:06.097Z,100420.16
2023-02-11T07:49:32.566Z,100428.63
2023-02-11T07:51:58.948Z,100439.09
2023-02-11T07:54:25.387Z,100434.44
2023-02-11T07:59:19.066Z,100437.91
2023-02-11T08:01:45.530Z,100441.84
2023-02-11T08:04:12.028Z,100453.06
2023-02-11T08:09:13.033Z,100442.78
2023-02-11T08:14:05.886Z,100444.25
2023-02-11T08:16:34.709Z,100441.72
2023-02-11T08:19:03.964Z,100423.03
2023-02-11T08:21:30.633Z,100434.16
2023-02-11T08:26:27.279Z,100417.38
2023-02-11T08:28:55.969Z,100429.91
2023-02-11T08:31:30.470Z,100427.94
2023-02-11T08:34:00.119Z,100422.91
2023-02-11T08:36:30.283Z,100432.41
2023-02-11T08:39:18.694Z,100422.84
2023-02-11T08:41:49.052Z,100420.69
2023-02-11T08:44:16.414Z,100425.53
2023-02-11T08:49:09.663Z,100419.84
2023-02-11T08:51:38.864Z,100419.75
2023-02-11T08:54:09.456Z,100426.00
2023-02-11T08:59:04.882Z,100414.09
2023-02-11T09:01:32.287Z,100411.94
2023-02-11T09:06:26.428Z,100414.84
2023-02-11T09:08:55.188Z,100406.69
2023-02-11T09:11:33.219Z,100406.56
2023-02-11T09:16:30.737Z,100396.72
2023-02-11T09:18:59.120Z,100395.59
2023-02-11T09:21:26.668Z,100392.47
2023-02-11T09:26:26.046Z,100414.00
2023-02-11T09:31:23.625Z,100415.56
2023-02-11T09:33:54.072Z,100420.09
2023-02-11T09:36:27.048Z,100409.66
2023-02-11T09:41:33.831Z,100419.59
2023-02-11T09:44:04.952Z,100418.88
2023-02-11T09:46:36.606Z,100414.22
2023-02-11T09:49:05.169Z,100412.66
2023-02-11T09:51:48.841Z,100424.47
2023-02-11T09:54:38.413Z,100412.75
2023-02-11T09:57:06.460Z,100426.66
2023-02-11T09:59:33.091Z,100432.28
2023-02-11T10:02:07.541Z,100426.28
2023-02-11T10:05:08.125Z,100428.22
2023-02-11T10:07:53.169Z,100420.78
2023-02-11T10:13:32.533Z,100430.44
2023-02-11T10:16:23.216Z,100430.59
2023-02-11T10:18:59.535Z,100435.63
2023-02-11T10:24:20.457Z,100435.97
2023-02-11T10:26:47.343Z,100438.81
2023-02-11T10:29:23.201Z,100443.41
2023-02-11T10:31:52.106Z,100432.47
2023-02-11T10:34:18.620Z,100438.22
2023-02-11T10:36:45.820Z,100446.81
2023-02-11T10:39:12.240Z,100447.78
2023-02-11T10:41:46.538Z,100440.91
2023-02-11T10:44:31.055Z,100435.84
2023-02-11T10:47:02.021Z,100429.97
2023-02-11T10:49:41.350Z,100431.75
2023-02-11T10:52:13.771Z,100413.84
2023-02-11T10:54:40.638Z,100415.38
2023-02-11T10:57:18.282Z,100417.06
2023-02-11T10:59:45.032Z,100434.38
2023-02-11T11:02:32.053Z,100437.53
2023-02-11T11:07:32.780Z,100414.84
2023-02-11T11:10:35.974Z,100408.44
2023-02-11T11:15:31.807Z,100416.16
2023-02-11T11:18:22.312Z,100415.56
2023-02-11T11:23:31.401Z,100424.09
2023-02-11T11:26:07.515Z,100432.94
2023-02-11T11:28:50.003Z,100431.63
2023-02-11T11:34:35.257Z,100431.72
2023-02-11T11:37:11.029Z,100422.81
2023-02-11T11:39:37.492Z,100420.78
2023-02-11T11:42:21.923Z,100419.78
2023-02-11T11:47:41.933Z,100422.81
2023-02-11T11:50:25.633Z,100419.69
2023-02-11T11:53:07.603Z,100424.34
2023-02-11T11:55:45.058Z,100424.47
2023-02-11T11:58:18.478Z,100417.16
2023-02-11T12:01:00.577Z,100422.03
2023-02-11T12:03:51.495Z,100420.44
2023-02-11T12:06:17.929Z,100419.25
2023-02-11T12:08:52.133Z,100415.94
2023-02-11T12:11:31.399Z,100426.63
2023-02-11T12:14:03.819Z,100416.25
2023-02-11T12:19:41.867Z,100419.25
2023-02-11T12:22:27.024Z,100415.84
2023-02-11T12:25:04.065Z,100408.34
2023-02-11T12:27:44.124Z,100409.72
2023-02-11T12:30:28.743Z,100408.16
2023-02-11T12:33:17.101Z,100400.81
2023-02-11T12:36:06.976Z,100393.97
2023-02-11T12:38:59.133Z,100389.91
2023-02-11T12:41:50.374Z,100397.16
2023-02-11T12:44:50.215Z,100398.22
2023-02-11T12:47:42.775Z,100389.31
2023-02-11T12:50:26.189Z,100388.03
2023-02-11T12:53:04.430Z,100394.19
2023-02-11T12:55:38.850Z,100389.72
2023-02-11T12:58:10.722Z,100381.91
2023-02-11T13:03:51.469Z,100369.91
2023-02-11T13:06:23.627Z,100369.56
2023-02-11T13:08:57.362Z,100367.59
2023-02-11T13:11:32.512Z,100361.44
2023-02-11T13:14:24.996Z,100360.91
2023-02-11T13:16:54.119Z,100362.78
2023-02-11T13:19:26.941Z,100361.91
2023-02-11T13:22:20.347Z,100361.91
2023-02-11T13:27:46.272Z,100360.44
2023-02-11T13:30:35.532Z,100354.19
2023-02-11T13:33:07.230Z,100354.34
2023-02-11T13:35:41.188Z,100365.88
2023-02-11T13:38:23.440Z,100360.81
2023-02-11T13:41:21.377Z,100353.75
2023-02-11T13:44:02.967Z,100356.03
2023-02-11T13:47:05.123Z,100355.75
2023-02-11T13:49:39.308Z,100363.06
2023-02-11T13:52:21.881Z,100352.94
2023-02-11T13:57:19.843Z,100348.78
2023-02-11T13:59:56.668Z,100357.00
2023-02-11T14:02:55.567Z,100362.16
2023-02-11T14:05:49.549Z,100371.06
2023-02-11T14:08:45.817Z,100362.22
2023-02-11T14:11:38.536Z,100371.09
2023-02-11T14:14:29.611Z,100362.38
2023-02-11T14:19:43.893Z,100371.44
2023-02-11T14:22:10.808Z,100365.94
2023-02-11T14:24:37.472Z,100363.88
2023-02-11T14:27:10.602Z,100360.34
2023-02-11T14:30:04.970Z,100361.97
2023-02-11T14:41:30.646Z,100365.38
2023-02-11T14:44:05.668Z,100360.41
2023-02-11T14:46:33.663Z,100367.16
2023-02-11T14:49:03.727Z,100370.09
2023-02-11T14:57:16.073Z,100359.72
2023-02-11T15:00:05.945Z,100360.25
2023-02-11T15:02:37.672Z,100357.94
2023-02-11T15:05:33.599Z,100361.53
2023-02-11T15:10:37.093Z,100379.97
2023-02-11T15:13:05.447Z,100374.78
2023-02-11T15:15:34.858Z,100379.47
2023-02-11T15:18:04.341Z,100386.44
2023-02-11T15:20:34.696Z,100379.78
2023-02-11T15:23:12.463Z,100380.59
2023-02-11T15:25:51.449Z,100376.41
2023-02-11T15:28:30.148Z,100378.66
2023-02-11T15:33:33.014Z,100385.78
2023-02-11T15:38:29.962Z,100390.53
2023-02-11T15:43:45.184Z,100386.94
2023-02-11T15:46:19.147Z,100385.34
2023-02-11T15:48:49.478Z,100384.81
2023-02-11T15:51:33.447Z,100387.56
2023-02-11T15:54:19.942Z,100388.84
2023-02-11T15:56:53.045Z,100393.91
2023-02-11T15:59:41.894Z,100395.19
2023-02-11T16:02:17.119Z,100390.97
2023-02-11T16:07:52.906Z,100394.19
2023-02-11T16:10:24.373Z,100398.91
2023-02-11T16:13:25.038Z,100401.84
2023-02-11T16:15:57.504Z,100402.63
2023-02-11T16:18:40.113Z,100408.59
2023-02-11T16:21:17.088Z,100403.59
2023-02-11T16:23:51.563Z,100404.69
2023-02-11T16:26:27.045Z,100407.97
2023-02-11T16:29:02.332Z,100414.25
2023-02-11T16:31:37.983Z,100418.47
2023-02-11T16:34:18.780Z,100419.59
2023-02-11T16:36:47.139Z,100417.00
2023-02-11T16:39:14.656Z,100423.03
2023-02-11T16:41:44.057Z,100424.13
2023-02-11T16:44:11.306Z,100418.13
2023-02-11T16:46:38.997Z,100418.94
2023-02-11T16:49:20.686Z,100421.25
2023-02-11T16:51:52.799Z,100422.84
2023-02-11T16:54:28.515Z,100425.31
2023-02-11T16:56:55.753Z,100431.16
2023-02-11T16:59:22.561Z,100420.09
2023-02-11T17:01:53.777Z,100433.75
2023-02-11T17:04:35.872Z,100435.88
2023-02-11T17:09:32.098Z,100444.28
2023-02-11T17:11:59.184Z,100438.56
2023-02-11T17:14:26.165Z,100450.06
2023-02-11T17:16:56.319Z,100446.81
2023-02-11T17:19:23.274Z,100444.22
2023-02-11T17:21:55.701Z,100446.00
2023-02-11T17:24:22.788Z,100441.31
2023-02-11T17:26:50.829Z,100449.91
2023-02-11T17:29:21.688Z,100443.25
2023-02-11T17:31:48.700Z,100448.59
2023-02-11T17:34:16.927Z,100449.19
2023-02-11T17:36:47.168Z,100445.28
2023-02-11T17:41:41.148Z,100438.22
2023-02-11T17:44:10.647Z,100446.31
2023-02-11T17:46:40.314Z,100445.31
2023-02-11T17:51:41.830Z,100444.97
2023-02-11T17:56:39.422Z,100451.78
2023-02-11T18:01:36.669Z,100451.78
2023-02-11T18:04:04.401Z,100456.31
2023-02-11T18:06:33.897Z,100450.44
2023-02-11T18:09:02.784Z,100452.59
2023-02-11T18:11:32.801Z,100456.59
2023-02-11T18:14:02.309Z,100462.09
2023-02-11T18:16:30.798Z,100454.63
2023-02-11T18:18:58.508Z,100456.91
2023-02-11T18:21:25.715Z,100454.63
2023-02-11T18:23:52.664Z,100462.22
2023-02-11T18:26:21.428Z,100454.81
2023-02-11T18:28:48.489Z,100459.19
2023-02-11T18:31:15.736Z,100460.63
2023-02-11T18:33:43.186Z,100463.72
2023-02-11T18:37:03.073Z,100468.47
2023-02-11T18:39:30.175Z,100459.41
2023-02-11T18:41:58.941Z,100465.88
2023-02-11T18:44:28.062Z,100465.66
2023-02-11T18:46:54.883Z,100469.50
2023-02-11T18:49:21.798Z,100473.59
2023-02-11T18:51:48.637Z,100477.19
2023-02-11T18:54:15.472Z,100475.13
2023-02-11T18:56:45.801Z,100483.72
2023-02-11T18:59:13.332Z,100481.13
2023-02-11T19:01:43.826Z,100476.88
2023-02-11T19:04:12.055Z,100483.84
2023-02-11T19:06:39.843Z,100484.84
2023-02-11T19:09:12.581Z,100490.03
2023-02-11T19:11:54.156Z,100490.16
2023-02-11T19:14:24.044Z,100489.50
2023-02-11T19:16:54.197Z,100491.44
2023-02-11T19:19:23.507Z,100488.03
2023-02-11T19:21:53.641Z,100497.75
2023-02-11T19:24:23.321Z,100503.13
2023-02-11T19:26:53.294Z,100518.09
2023-02-11T19:29:23.856Z,100511.41
2023-02-11T19:31:51.639Z,100503.13
2023-02-11T19:34:20.742Z,100502.75
2023-02-11T19:39:41.188Z,100501.88
2023-02-11T19:44:34.678Z,100520.19
2023-02-11T19:47:02.001Z,100515.78
2023-02-11T19:49:28.614Z,100515.66
2023-02-11T19:51:58.416Z,100522.31
2023-02-11T19:54:26.611Z,100518.94
2023-02-11T19:56:53.716Z,100533.44
2023-02-11T19:59:21.416Z,100531.44
2023-02-11T20:01:49.249Z,100526.91
2023-02-11T20:04:17.613Z,100529.50
2023-02-11T20:06:44.957Z,100526.59
2023-02-11T20:09:14.667Z,100530.44
2023-02-11T20:11:42.560Z,100518.03
2023-02-11T20:14:11.588Z,100523.66
2023-02-11T20:16:48.026Z,100527.72
2023-02-11T20:19:21.579Z,100527.50
2023-02-11T20:21:51.773Z,100515.66
2023-02-11T20:24:19.776Z,100509.13
2023-02-11T20:26:48.540Z,100505.06
2023-02-11T20:29:17.091Z,100514.88
2023-02-11T20:31:44.321Z,100517.66
2023-02-11T20:34:14.131Z,100526.00
2023-02-11T20:36:41.440Z,100521.41
2023-02-11T20:41:39.397Z,100526.94
2023-02-11T20:44:10.791Z,100529.03
2023-02-11T20:46:40.372Z,100538.19
2023-02-11T20:49:11.436Z,100533.38
2023-02-11T20:51:42.078Z,100543.19
2023-02-11T20:54:13.415Z,100541.25
2023-02-11T20:56:40.624Z,100540.44
2023-02-11T21:01:41.744Z,100545.63
2023-02-11T21:04:20.801Z,100546.16
2023-02-11T21:06:53.487Z,100550.91
2023-02-11T21:09:24.967Z,100559.19
2023-02-11T21:11:52.894Z,100567.78
2023-02-11T21:14:24.442Z,100568.59
2023-02-11T21:19:20.204Z,100553.78
2023-02-11T21:26:42.260Z,100556.00
2023-02-11T21:29:09.744Z,100552.75
2023-02-11T21:41:31.408Z,100579.09
2023-02-11T21:43:59.365Z,100571.53
2023-02-11T21:48:55.502Z,100574.34
2023-02-11T21:51:24.620Z,100571.16
2023-02-11T21:54:01.135Z,100576.09
2023-02-11T21:56:30.200Z,100578.38
2023-02-11T22:01:30.704Z,100569.53
2023-02-11T22:03:58.263Z,100565.97
2023-02-11T22:06:31.219Z,100564.47
2023-02-11T22:08:59.306Z,100563.94
2023-02-11T22:11:25.931Z,100564.53
2023-02-11T22:13:56.375Z,100559.94
2023-02-11T22:16:24.186Z,100560.72
2023-02-11T22:18:54.074Z,100560.97
2023-02-11T22:21:22.953Z,100565.34
2023-02-11T22:23:50.528Z,100570.69
2023-02-11T22:26:20.748Z,100571.34
2023-02-11T22:31:52.623Z,100577.78
2023-02-11T22:34:21.248Z,100576.00
2023-02-11T22:36:51.709Z,100573.53
2023-02-11T22:39:23.899Z,100572.03
2023-02-11T22:41:54.753Z,100573.94
2023-02-11T22:44:26.331Z,100573.78
2023-02-11T22:46:54.115Z,100572.69
2023-02-11T22:49:24.955Z,100576.38
2023-02-11T22:52:03.176Z,100581.94
2023-02-11T22:54:42.182Z,100582.34
2023-02-11T22:59:44.101Z,100580.31
2023-02-11T23:02:28.876Z,100586.44
2023-02-11T23:05:01.256Z,100578.44
2023-02-11T23:07:32.467Z,100578.72
2023-02-11T23:10:00.742Z,100590.31
2023-02-11T23:12:31.193Z,100585.16
2023-02-11T23:15:05.058Z,100584.31
2023-02-11T23:17:33.066Z,100584.50
2023-02-11T23:20:00.041Z,100587.22
2023-02-11T23:22:27.445Z,100582.97
2023-02-11T23:30:19.295Z,100577.66
2023-02-11T23:32:55.594Z,100587.75
2023-02-11T23:35:24.891Z,100579.69
2023-02-11T23:37:58.915Z,100595.25
2023-02-11T23:40:30.616Z,100594.03
2023-02-11T23:43:04.144Z,100599.88
2023-02-11T23:45:35.633Z,100599.06
2023-02-11T23:48:02.755Z,100596.31
2023-02-11T23:50:32.769Z,100590.34
2023-02-11T23:52:59.684Z,100586.44
2023-02-11T23:55:26.386Z,100591.19
2023-02-11T23:57:53.244Z,100593.63
